WetterOnline ( http://www.wetteronline.de )

Wetter aktuell Prenzlau

Aktuelles Wetter: Grünow (57m)

6-stündlich | Neueste Meldungen
Ortszeit Temperatur Wetter
Di, 16.10. 20:00 13.9° C fast wolkenlos
Di, 16.10. 14:00 20.0° C wolkenlos
Di, 16.10. 8:00 7.5° C wolkenlos
Di, 16.10. 2:00 11.6° C leicht bewölkt
Mo, 15.10. 20:00 14.9° C wolkenlos
Mo, 15.10. 14:00 20.2° C wolkig
Mo, 15.10. 8:00 11.8° C wolkenlos
Mo, 15.10. 2:00 15.1° C wolkenlos
Ortszeit Temperatur Wetter
Di, 16.10. 20:00 13.9° C fast wolkenlos
Di, 16.10. 19:40 14.3° C leicht bewölkt
Di, 16.10. 19:30 15.3° C leicht bewölkt
Di, 16.10. 19:20 15.3° C leicht bewölkt
Di, 16.10. 19:10 15.6° C leicht bewölkt
Di, 16.10. 19:00 15.9° C leicht bewölkt
Di, 16.10. 18:50 15.9° C leicht bewölkt
Di, 16.10. 18:30 16.3° C wolkenlos
Di, 16.10. 18:00 17.3° C wolkenlos
Di, 16.10. 17:30 18.7° C wolkenlos
Di, 16.10. 17:00 19.7° C wolkenlos
Di, 16.10. 16:30 20.3° C wolkenlos
Ortszeit Relative Feuchte Sichtweite
Di, 16.10. 20:00 65% 27 km
Di, 16.10. 14:00 43% 23 km
Di, 16.10. 8:00 83% 16 km
Di, 16.10. 2:00 63% 26 km
Mo, 15.10. 20:00 52% 26 km
Mo, 15.10. 14:00 39% 24 km
Mo, 15.10. 8:00 63% 30 km
Mo, 15.10. 2:00 54% 35 km
Ortszeit Relative Feuchte Sichtweite
Di, 16.10. 20:00 65% 27 km
Di, 16.10. 19:40 64% -
Di, 16.10. 19:30 60% 27 km
Di, 16.10. 19:20 60% -
Di, 16.10. 19:10 59% -
Di, 16.10. 19:00 59% 26 km
Di, 16.10. 18:50 59% -
Di, 16.10. 18:30 57% 24 km
Di, 16.10. 18:00 54% 30 km
Di, 16.10. 17:30 50% 30 km
Di, 16.10. 17:00 46% 29 km
Di, 16.10. 16:30 43% 26 km
Ortszeit Niederschlagsmenge Niederschlagsart
Di, 16.10. 20:00 0.0 l/m2 in 12 Std. -
Di, 16.10. 14:00 0.0 l/m2 in 6 Std. -
Di, 16.10. 8:00 0.0 l/m2 in 12 Std. -
Di, 16.10. 2:00 0.0 l/m2 in 6 Std. -
Mo, 15.10. 20:00 0.0 l/m2 in 12 Std. -
Mo, 15.10. 14:00 0.0 l/m2 in 6 Std. -
Mo, 15.10. 8:00 0.0 l/m2 in 12 Std. -
Mo, 15.10. 2:00 0.0 l/m2 in 6 Std. -
Ortszeit Niederschlagsmenge Niederschlagsart
Di, 16.10. 20:00 0.0 l/m2 in 1 Std. -
Di, 16.10. 19:40 keine Meldung -
Di, 16.10. 19:30 0.0 l/m2 in 1 Std. -
Di, 16.10. 19:20 keine Meldung -
Di, 16.10. 19:10 keine Meldung -
Di, 16.10. 19:00 0.0 l/m2 in 1 Std. -
Di, 16.10. 18:50 keine Meldung -
Di, 16.10. 18:30 0.0 l/m2 in 1 Std. -
Di, 16.10. 18:00 0.0 l/m2 in 1 Std. -
Di, 16.10. 17:30 0.0 l/m2 in 1 Std. -
Di, 16.10. 17:00 0.0 l/m2 in 1 Std. -
Di, 16.10. 16:30 0.0 l/m2 in 1 Std. -
Ortszeit Stärke Spitze Richtung
km/h Bft. km/h Grad Sektor
Di, 16.10. 20:00 7 2 15 180° S
Di, 16.10. 14:00 7 2 14 150° SO
Di, 16.10. 8:00 0 0 14 - -
Di, 16.10. 2:00 7 2 15 160° S
Mo, 15.10. 20:00 11 2 36 150° SO
Mo, 15.10. 14:00 22 4 29 150° SO
Mo, 15.10. 8:00 14 3 29 160° S
Mo, 15.10. 2:00 20 4 31 150° SO
Ortszeit Stärke Spitze Richtung
km/h Bft. km/h Grad Sektor
Di, 16.10. 20:00 7 2 11 180° S
Di, 16.10. 19:40 9 2 - 170° S
Di, 16.10. 19:30 9 2 11 160° S
Di, 16.10. 19:20 9 2 - 160° S
Di, 16.10. 19:10 9 2 - 150° SO
Di, 16.10. 19:00 11 2 11 150° SO
Di, 16.10. 18:50 11 2 - 150° SO
Di, 16.10. 18:30 9 2 11 150° SO
Di, 16.10. 18:00 9 2 11 150° SO
Di, 16.10. 17:30 7 2 11 140° SO
Di, 16.10. 17:00 7 2 14 150° SO
Di, 16.10. 16:30 11 2 14 160° S
Ortszeit Untergrenze Bedeckung Gattung
total tief tief mittel hoch
Di, 16.10. 20:00 7200 m 1/8 0/8 - - -
Di, 16.10. 14:00 3600 m 0/8 0/8 - - -
Di, 16.10. 8:00 - 0/8 0/8 - - -
Di, 16.10. 2:00 3600 m 2/8 2/8 - - -
Mo, 15.10. 20:00 7200 m 0/8 0/8 - - -
Mo, 15.10. 14:00 6900 m 7/8 3/8 - - -
Mo, 15.10. 8:00 - 0/8 0/8 - - -
Mo, 15.10. 2:00 - 0/8 0/8 - - -
Ortszeit Bedeckungsgrad in Achtel und Wolkenuntergrenze
Di, 16.10. 20:00 1(7200m)
Di, 16.10. 19:40 3(7200m) 3(8100m)
Di, 16.10. 19:30 6(7200m) 6(8100m)
Di, 16.10. 19:20 6(7200m) 6(8100m)
Di, 16.10. 19:10 4(7500m) 6(8100m)
Di, 16.10. 19:00 4(8100m)
Di, 16.10. 18:50 4(8100m)
Di, 16.10. 18:30 2(8400m)
Di, 16.10. 18:00 keine Wolken
Di, 16.10. 17:30 keine Wolken
Di, 16.10. 17:00 keine Wolken
Di, 16.10. 16:30 keine Wolken
Ortszeit Luftdruck NN (hPa) Tendenz (hPa in 3 Std.)
Di, 16.10. 20:00 1020 + 0,9
Di, 16.10. 14:00 1019 - 0,1
Di, 16.10. 8:00 1018 + 0,9
Di, 16.10. 2:00 1017 0,0
Mo, 15.10. 20:00 1017 + 0,8
Mo, 15.10. 14:00 1016 - 0,1
Mo, 15.10. 8:00 1016 + 0,2
Mo, 15.10. 2:00 1015 + 0,1
Ortszeit Luftdruck NN (hPa) Tendenz (hPa in 3 Std.)
Di, 16.10. 20:00 1020 + 0,9
Di, 16.10. 19:40 1019 keine Meldung
Di, 16.10. 19:30 1019 + 0,8
Di, 16.10. 19:20 1019 keine Meldung
Di, 16.10. 19:10 1019 keine Meldung
Di, 16.10. 19:00 1019 + 0,6
Di, 16.10. 18:50 1019 keine Meldung
Di, 16.10. 18:30 1019 + 0,5
Di, 16.10. 18:00 1019 + 0,2
Di, 16.10. 17:30 1019 + 0,1
Di, 16.10. 17:00 1018 - 0,1
Di, 16.10. 16:30 1018 - 0,1
Ortszeit Schneehöhe (cm)
Di, 16.10. 20:00 0
Di, 16.10. 14:00 0
Di, 16.10. 8:00 0
Di, 16.10. 2:00 0
Mo, 15.10. 20:00 0
Mo, 15.10. 14:00 0
Mo, 15.10. 8:00 0
Mo, 15.10. 2:00 0
Ortszeit Schneehöhe (cm)
Di, 16.10. 20:00 0
Di, 16.10. 19:40 0
Di, 16.10. 19:30 0
Di, 16.10. 19:20 0
Di, 16.10. 19:10 0
Di, 16.10. 19:00 0
Di, 16.10. 18:50 0
Di, 16.10. 18:30 0
Di, 16.10. 18:00 0
Di, 16.10. 17:30 0
Di, 16.10. 17:00 0
Di, 16.10. 16:30 0
Link zu dieser Seite / Seite empfehlen

Das Wetter in ...